Time;durP1;ratioP1;P1;durP2;ratioP2;P2;SDS_P1;SDS_P2;PMS_P1;PMS_P2;Temp;Humidity;BMP_temperature;BMP_pressure;BME280_temperature;BME280_humidity;BME280_pressure;Samples;Min_cycle;Max_cycle;Signal;HPM_P1;HPM_P2
2023/12/10 00:02:16;;;;;;;12.40;7.30;;;;;;;;;;103689;1292;544957;-74
2023/12/10 00:05:53;;;;;;;12.90;7.50;;;;;;;;;;103747;1295;544929;-75
2023/12/10 00:09:30;;;;;;;12.60;7.30;;;;;;;;;;103754;1295;544733;-73
2023/12/10 00:13:21;;;;;;;12.70;7.20;;;;;;;;;;103778;1291;545407;-77
2023/12/10 00:16:44;;;;;;;11.60;7.10;;;;;;;;;;103984;1292;544963;-74
2023/12/10 00:20:22;;;;;;;12.90;8.00;;;;;;;;;;103792;1291;545133;-75
2023/12/10 00:24:06;;;;;;;13.00;8.10;;;;;;;;;;103713;1291;547819;-74
2023/12/10 00:27:36;;;;;;;11.80;7.20;;;;;;;;;;104031;1288;544923;-74
2023/12/10 00:31:14;;;;;;;11.50;7.00;;;;;;;;;;104060;1289;545091;-75
2023/12/10 00:34:48;;;;;;;12.20;7.40;;;;;;;;;;103881;1289;544869;-74
2023/12/10 00:38:38;;;;;;;11.80;7.00;;;;;;;;;;103800;1289;547965;-75
2023/12/10 00:42:07;;;;;;;12.40;7.60;;;;;;;;;;103776;1291;545159;-75
2023/12/10 00:45:44;;;;;;;12.10;7.70;;;;;;;;;;103577;1295;545057;-74
2023/12/10 00:49:29;;;;;;;14.00;8.70;;;;;;;;;;103272;1294;549312;-74
2023/12/10 00:53:03;;;;;;;12.80;7.80;;;;;;;;;;103934;1288;545421;-74
2023/12/10 00:56:37;;;;;;;13.10;8.70;;;;;;;;;;103721;1303;546362;-74
2023/12/10 01:00:13;;;;;;;11.20;7.30;;;;;;;;;;104761;1279;545381;-73
2023/12/10 01:03:52;;;;;;;11.70;7.20;;;;;;;;;;103827;1291;545030;-75
2023/12/10 01:07:29;;;;;;;9.70;6.60;;;;;;;;;;103782;1292;545563;-77
2023/12/10 01:11:16;;;;;;;11.90;8.50;;;;;;;;;;103775;1292;545008;-74
2023/12/10 01:14:44;;;;;;;12.80;8.80;;;;;;;;;;103835;1291;545460;-75
2023/12/10 01:18:22;;;;;;;13.10;8.50;;;;;;;;;;103774;1292;544841;-73
2023/12/10 01:21:58;;;;;;;13.70;9.30;;;;;;;;;;103730;1295;544946;-73
2023/12/10 01:25:39;;;;;;;15.40;10.60;;;;;;;;;;103813;1294;545230;-72
2023/12/10 01:29:15;;;;;;;15.50;9.80;;;;;;;;;;103799;1289;544841;-74
2023/12/10 01:32:56;;;;;;;15.00;9.90;;;;;;;;;;103776;1289;544751;-73
2023/12/10 01:36:29;;;;;;;14.60;10.60;;;;;;;;;;103813;1289;545037;-74
2023/12/10 01:40:17;;;;;;;14.50;10.40;;;;;;;;;;103816;1290;545157;-75
2023/12/10 01:43:45;;;;;;;13.70;9.10;;;;;;;;;;103612;1292;544904;-74
2023/12/10 01:47:21;;;;;;;12.70;8.80;;;;;;;;;;103817;1291;545077;-75
2023/12/10 01:51:03;;;;;;;14.20;8.40;;;;;;;;;;103793;1290;545096;-74
2023/12/10 01:54:43;;;;;;;15.10;8.60;;;;;;;;;;103464;1294;544814;-75
2023/12/10 01:58:20;;;;;;;14.10;8.90;;;;;;;;;;103627;1298;547631;-74
2023/12/10 02:01:51;;;;;;;13.90;8.20;;;;;;;;;;103887;1289;545587;-73
2023/12/10 02:05:31;;;;;;;16.60;9.50;;;;;;;;;;103830;1288;545414;-73
2023/12/10 02:09:10;;;;;;;20.50;11.50;;;;;;;;;;103816;1289;545348;-74
2023/12/10 02:12:39;;;;;;;20.80;11.30;;;;;;;;;;103903;1289;545801;-74
2023/12/10 02:16:24;;;;;;;19.00;11.30;;;;;;;;;;103786;1293;544822;-74
2023/12/10 02:19:58;;;;;;;17.50;9.90;;;;;;;;;;104020;1288;545432;-75
2023/12/10 02:23:43;;;;;;;14.70;9.20;;;;;;;;;;103756;1295;545591;-75
2023/12/10 02:27:20;;;;;;;12.40;8.70;;;;;;;;;;103775;1292;546406;-76
2023/12/10 02:30:51;;;;;;;13.70;9.50;;;;;;;;;;103847;1289;545340;-76
2023/12/10 02:34:31;;;;;;;13.40;9.20;;;;;;;;;;103794;1291;545153;-74
2023/12/10 02:38:06;;;;;;;12.30;8.40;;;;;;;;;;104188;1289;545666;-75
2023/12/10 02:41:48;;;;;;;12.10;8.40;;;;;;;;;;103785;1292;544785;-74
2023/12/10 02:45:20;;;;;;;12.10;8.70;;;;;;;;;;103772;1289;545231;-74
2023/12/10 02:49:05;;;;;;;12.00;8.30;;;;;;;;;;103619;1292;545402;-77
2023/12/10 02:52:38;;;;;;;11.30;8.40;;;;;;;;;;103762;1291;545064;-75
2023/12/10 02:56:13;;;;;;;12.60;8.20;;;;;;;;;;103776;1295;544586;-74
2023/12/10 02:59:50;;;;;;;11.80;7.50;;;;;;;;;;103658;1291;544810;-74
2023/12/10 03:03:29;;;;;;;12.20;7.90;;;;;;;;;;103753;1289;544985;-74
2023/12/10 03:07:05;;;;;;;11.80;7.70;;;;;;;;;;103737;1292;544774;-75
2023/12/10 03:10:39;;;;;;;12.50;8.60;;;;;;;;;;103858;1292;545914;-74
2023/12/10 03:14:20;;;;;;;10.80;7.00;;;;;;;;;;103778;1292;544800;-75
2023/12/10 03:18:01;;;;;;;10.10;6.70;;;;;;;;;;103875;1292;545486;-75
2023/12/10 03:21:36;;;;;;;9.60;6.00;;;;;;;;;;103788;1292;545822;-73
2023/12/10 03:25:13;;;;;;;9.20;5.80;;;;;;;;;;103789;1292;545623;-75
2023/12/10 03:28:49;;;;;;;9.80;6.10;;;;;;;;;;103656;1291;544935;-74
2023/12/10 03:32:28;;;;;;;9.80;6.10;;;;;;;;;;103898;1289;544788;-77
2023/12/10 03:36:09;;;;;;;10.70;6.00;;;;;;;;;;103772;1292;545960;-75
2023/12/10 03:39:42;;;;;;;10.40;6.40;;;;;;;;;;104246;1286;544803;-75
2023/12/10 03:43:19;;;;;;;10.80;6.80;;;;;;;;;;103900;1288;544949;-75
2023/12/10 03:47:22;;;;;;;10.90;6.60;;;;;;;;;;103665;1291;545420;-75
2023/12/10 03:50:43;;;;;;;9.60;5.00;;;;;;;;;;103647;1295;547964;-78
2023/12/10 03:54:20;;;;;;;9.40;5.20;;;;;;;;;;103687;1291;548107;-75
2023/12/10 03:57:56;;;;;;;9.10;5.40;;;;;;;;;;103558;1297;547863;-76
2023/12/10 04:01:27;;;;;;;8.40;5.40;;;;;;;;;;103575;1295;544876;-76
2023/12/10 04:05:11;;;;;;;8.20;4.20;;;;;;;;;;103751;1290;545474;-74
2023/12/10 04:08:42;;;;;;;7.80;4.00;;;;;;;;;;103763;1295;545195;-75
2023/12/10 04:12:19;;;;;;;8.00;4.30;;;;;;;;;;103895;1288;545060;-76
2023/12/10 04:15:57;;;;;;;7.20;4.40;;;;;;;;;;103559;1298;546250;-76
2023/12/10 04:19:34;;;;;;;8.10;4.30;;;;;;;;;;103744;1292;544742;-73
2023/12/10 04:23:12;;;;;;;8.90;4.40;;;;;;;;;;103819;1291;544999;-76
2023/12/10 04:26:49;;;;;;;7.20;3.70;;;;;;;;;;103732;1297;544779;-74
2023/12/10 04:30:27;;;;;;;7.20;4.10;;;;;;;;;;103831;1291;545191;-73
2023/12/10 04:34:04;;;;;;;7.50;4.20;;;;;;;;;;103718;1291;545190;-73
2023/12/10 04:37:42;;;;;;;8.30;4.00;;;;;;;;;;103778;1292;545149;-74
2023/12/10 04:41:15;;;;;;;6.90;3.60;;;;;;;;;;103854;1290;545589;-74
2023/12/10 04:44:56;;;;;;;7.90;4.20;;;;;;;;;;103786;1289;544886;-75
2023/12/10 04:48:34;;;;;;;7.00;3.80;;;;;;;;;;103760;1292;545126;-76
2023/12/10 04:52:14;;;;;;;7.20;4.10;;;;;;;;;;103830;1291;545132;-75
2023/12/10 04:55:49;;;;;;;7.70;4.00;;;;;;;;;;103776;1289;545047;-74
2023/12/10 04:59:29;;;;;;;7.50;4.00;;;;;;;;;;103851;1292;545013;-74
2023/12/10 05:03:04;;;;;;;7.30;4.30;;;;;;;;;;103757;1292;545059;-74
2023/12/10 05:06:46;;;;;;;9.10;5.00;;;;;;;;;;103688;1291;544784;-74
2023/12/10 05:10:19;;;;;;;8.80;5.30;;;;;;;;;;103899;1292;544770;-74
2023/12/10 05:13:56;;;;;;;7.50;4.30;;;;;;;;;;103816;1292;544903;-74
2023/12/10 05:17:34;;;;;;;7.70;4.50;;;;;;;;;;103747;1295;545412;-74
2023/12/10 05:21:11;;;;;;;8.50;5.00;;;;;;;;;;103742;1289;544901;-74
2023/12/10 05:24:49;;;;;;;10.70;6.30;;;;;;;;;;103806;1289;544875;-76
2023/12/10 05:28:26;;;;;;;10.90;6.40;;;;;;;;;;103782;1291;544769;-73
2023/12/10 05:32:10;;;;;;;8.80;4.90;;;;;;;;;;103814;1288;549266;-73
2023/12/10 05:35:41;;;;;;;8.40;4.60;;;;;;;;;;104114;1287;544870;-74
2023/12/10 05:39:21;;;;;;;8.20;4.60;;;;;;;;;;103967;1289;545049;-74
2023/12/10 05:42:56;;;;;;;9.20;5.30;;;;;;;;;;103768;1291;545351;-77
2023/12/10 05:46:34;;;;;;;9.60;5.80;;;;;;;;;;103771;1292;545622;-75
2023/12/10 05:50:11;;;;;;;11.60;6.30;;;;;;;;;;103859;1296;544964;-73
2023/12/10 05:53:49;;;;;;;10.80;5.50;;;;;;;;;;103808;1292;544851;-76
2023/12/10 05:57:27;;;;;;;9.20;5.10;;;;;;;;;;103881;1292;545276;-73
2023/12/10 06:01:03;;;;;;;12.60;6.60;;;;;;;;;;103781;1289;544793;-74
2023/12/10 06:05:00;;;;;;;13.90;7.60;;;;;;;;;;103661;1294;547964;-77
2023/12/10 06:08:18;;;;;;;11.60;6.40;;;;;;;;;;103812;1289;546290;-73
2023/12/10 06:11:56;;;;;;;10.90;6.10;;;;;;;;;;103823;1288;544953;-75
2023/12/10 06:15:33;;;;;;;11.80;6.30;;;;;;;;;;103868;1291;546607;-74
2023/12/10 06:19:11;;;;;;;14.30;7.10;;;;;;;;;;103706;1292;545876;-74
2023/12/10 06:22:48;;;;;;;11.60;6.60;;;;;;;;;;103704;1291;544880;-74
2023/12/10 06:26:25;;;;;;;11.40;6.30;;;;;;;;;;103835;1292;544760;-75
2023/12/10 06:30:03;;;;;;;9.80;5.40;;;;;;;;;;103859;1289;545924;-73
2023/12/10 06:33:44;;;;;;;9.60;4.90;;;;;;;;;;103773;1291;545062;-73
2023/12/10 06:37:20;;;;;;;9.70;5.50;;;;;;;;;;104163;1285;544848;-74
2023/12/10 06:41:06;;;;;;;10.40;5.70;;;;;;;;;;103666;1295;547780;-77
2023/12/10 06:44:35;;;;;;;11.30;5.30;;;;;;;;;;103868;1290;545856;-74
2023/12/10 06:48:14;;;;;;;8.00;4.00;;;;;;;;;;103674;1292;545596;-75
2023/12/10 06:51:44;;;;;;;9.10;4.40;;;;;;;;;;104045;1289;545044;-75
2023/12/10 06:55:26;;;;;;;8.80;4.60;;;;;;;;;;103716;1289;545344;-75
2023/12/10 06:59:03;;;;;;;9.20;4.50;;;;;;;;;;103970;1289;544831;-73
2023/12/10 07:02:40;;;;;;;8.80;4.40;;;;;;;;;;103812;1291;544819;-73
2023/12/10 07:06:17;;;;;;;8.80;4.70;;;;;;;;;;103787;1294;545749;-74
2023/12/10 07:09:55;;;;;;;8.50;4.40;;;;;;;;;;103665;1295;544987;-73
2023/12/10 07:13:38;;;;;;;11.70;5.90;;;;;;;;;;103790;1289;544847;-74
2023/12/10 07:17:10;;;;;;;9.10;5.00;;;;;;;;;;103812;1301;544768;-73
2023/12/10 07:20:57;;;;;;;10.20;5.60;;;;;;;;;;104630;1282;545287;-73
2023/12/10 07:24:25;;;;;;;10.50;6.30;;;;;;;;;;103795;1292;545953;-74
2023/12/10 07:28:03;;;;;;;18.50;9.10;;;;;;;;;;103705;1295;544925;-73
2023/12/10 07:31:57;;;;;;;15.20;7.10;;;;;;;;;;103764;1291;545002;-76
2023/12/10 07:35:23;;;;;;;17.60;8.20;;;;;;;;;;104161;1286;544787;-74
2023/12/10 07:38:55;;;;;;;14.80;6.30;;;;;;;;;;103781;1292;544841;-75
2023/12/10 07:42:29;;;;;;;18.10;9.00;;;;;;;;;;103760;1289;544975;-73
2023/12/10 07:46:10;;;;;;;12.80;6.20;;;;;;;;;;104067;1286;544868;-75
2023/12/10 07:49:54;;;;;;;12.40;6.30;;;;;;;;;;103656;1295;548413;-74
2023/12/10 07:53:28;;;;;;;10.10;4.90;;;;;;;;;;103947;1289;544819;-74
2023/12/10 07:57:03;;;;;;;10.80;5.50;;;;;;;;;;103905;1292;545527;-74
2023/12/10 08:00:50;;;;;;;10.30;5.70;;;;;;;;;;103583;1293;545342;-75
2023/12/10 08:04:20;;;;;;;11.00;6.20;;;;;;;;;;103833;1290;545252;-75
2023/12/10 08:07:56;;;;;;;11.90;7.00;;;;;;;;;;103752;1289;544743;-74
2023/12/10 08:11:35;;;;;;;9.20;5.50;;;;;;;;;;103837;1289;545269;-74
2023/12/10 08:15:10;;;;;;;9.80;5.10;;;;;;;;;;103852;1288;545013;-75
2023/12/10 08:18:54;;;;;;;10.40;5.00;;;;;;;;;;103850;1294;545359;-73
2023/12/10 08:22:25;;;;;;;10.10;5.40;;;;;;;;;;103819;1289;544934;-75
2023/12/10 08:26:03;;;;;;;10.60;5.80;;;;;;;;;;103767;1295;545682;-74
2023/12/10 08:29:42;;;;;;;10.50;5.50;;;;;;;;;;103773;1293;544952;-74
2023/12/10 08:33:17;;;;;;;11.30;5.70;;;;;;;;;;103844;1292;545021;-73
2023/12/10 08:36:55;;;;;;;12.80;7.30;;;;;;;;;;104754;1281;544706;-73
2023/12/10 08:40:35;;;;;;;11.70;7.50;;;;;;;;;;104030;1291;544994;-74
2023/12/10 08:44:06;;;;;;;12.10;7.60;;;;;;;;;;103873;1288;545148;-74
2023/12/10 08:47:46;;;;;;;11.20;6.40;;;;;;;;;;103562;1292;545051;-73
2023/12/10 08:51:24;;;;;;;11.00;6.70;;;;;;;;;;103820;1292;544898;-73
2023/12/10 08:55:01;;;;;;;17.60;9.70;;;;;;;;;;103749;1292;545725;-73
2023/12/10 08:58:39;;;;;;;17.00;9.00;;;;;;;;;;104483;1282;546073;-73
2023/12/10 09:02:17;;;;;;;16.40;9.20;;;;;;;;;;103981;1296;544840;-74
2023/12/10 09:05:54;;;;;;;11.50;6.10;;;;;;;;;;103757;1290;544831;-73
2023/12/10 09:09:32;;;;;;;12.20;6.10;;;;;;;;;;103843;1292;545347;-75
2023/12/10 09:13:09;;;;;;;15.90;7.70;;;;;;;;;;103802;1294;546042;-74
2023/12/10 09:16:47;;;;;;;14.90;8.30;;;;;;;;;;103792;1289;545512;-73
2023/12/10 09:20:23;;;;;;;18.20;9.80;;;;;;;;;;103586;1294;544972;-73
2023/12/10 09:24:01;;;;;;;14.30;7.20;;;;;;;;;;103750;1289;544887;-73
2023/12/10 09:27:38;;;;;;;12.50;6.30;;;;;;;;;;104537;1285;544998;-73
2023/12/10 09:31:16;;;;;;;12.90;7.20;;;;;;;;;;103849;1301;545645;-73
2023/12/10 09:34:54;;;;;;;12.90;7.40;;;;;;;;;;103883;1289;545008;-73
2023/12/10 09:38:31;;;;;;;11.90;6.80;;;;;;;;;;103828;1290;544825;-74
2023/12/10 09:42:08;;;;;;;12.80;6.70;;;;;;;;;;103736;1292;544932;-73
2023/12/10 09:45:46;;;;;;;12.50;5.60;;;;;;;;;;103790;1290;545365;-72
2023/12/10 09:49:24;;;;;;;14.20;7.10;;;;;;;;;;103815;1292;545587;-74
2023/12/10 09:53:01;;;;;;;13.30;7.50;;;;;;;;;;103755;1290;544878;-77
2023/12/10 09:56:39;;;;;;;14.20;7.40;;;;;;;;;;104491;1282;545412;-72
2023/12/10 10:00:16;;;;;;;14.60;7.70;;;;;;;;;;103792;1289;545507;-73
2023/12/10 10:03:53;;;;;;;12.20;5.70;;;;;;;;;;103919;1292;544730;-75
2023/12/10 10:07:31;;;;;;;15.70;7.70;;;;;;;;;;103803;1290;545310;-73
2023/12/10 10:11:08;;;;;;;14.50;7.50;;;;;;;;;;103738;1290;544975;-73
2023/12/10 10:14:57;;;;;;;22.40;13.40;;;;;;;;;;103762;1292;544827;-73
2023/12/10 10:18:26;;;;;;;23.70;15.40;;;;;;;;;;103823;1289;544722;-74
2023/12/10 10:22:01;;;;;;;18.50;10.30;;;;;;;;;;103855;1291;544851;-73
2023/12/10 10:25:39;;;;;;;12.80;6.80;;;;;;;;;;104520;1282;545492;-72
2023/12/10 10:29:16;;;;;;;15.90;7.80;;;;;;;;;;103670;1292;545068;-74
2023/12/10 10:32:55;;;;;;;15.20;8.30;;;;;;;;;;103780;1291;545533;-74
2023/12/10 10:36:31;;;;;;;14.90;8.30;;;;;;;;;;103774;1291;546435;-74
2023/12/10 10:40:08;;;;;;;18.40;10.90;;;;;;;;;;103810;1292;545652;-74
2023/12/10 10:43:45;;;;;;;23.40;13.90;;;;;;;;;;103772;1290;545075;-72
2023/12/10 10:47:24;;;;;;;29.90;16.10;;;;;;;;;;103575;1292;544878;-73
2023/12/10 10:51:02;;;;;;;62.40;33.30;;;;;;;;;;103666;1291;544987;-73
2023/12/10 10:54:41;;;;;;;30.80;17.70;;;;;;;;;;103992;1289;545583;-74
2023/12/10 10:58:23;;;;;;;24.20;12.30;;;;;;;;;;103767;1292;544981;-73
2023/12/10 11:01:53;;;;;;;25.90;14.00;;;;;;;;;;103816;1291;545642;-73
2023/12/10 11:05:34;;;;;;;25.90;14.80;;;;;;;;;;103732;1291;544927;-72
2023/12/10 11:09:08;;;;;;;24.70;13.30;;;;;;;;;;103733;1292;545006;-72
2023/12/10 11:12:46;;;;;;;24.30;14.00;;;;;;;;;;103789;1295;545033;-74
2023/12/10 11:16:24;;;;;;;22.70;12.20;;;;;;;;;;103822;1289;546333;-73
2023/12/10 11:20:01;;;;;;;19.20;10.80;;;;;;;;;;103820;1291;546049;-76
2023/12/10 11:23:38;;;;;;;22.20;12.70;;;;;;;;;;103780;1292;545344;-72
2023/12/10 11:27:14;;;;;;;19.40;9.40;;;;;;;;;;103789;1292;544979;-72
2023/12/10 11:30:52;;;;;;;18.60;9.90;;;;;;;;;;103891;1289;545000;-72
2023/12/10 11:34:30;;;;;;;21.80;10.10;;;;;;;;;;103778;1289;545004;-72
2023/12/10 11:38:08;;;;;;;26.50;13.40;;;;;;;;;;103687;1290;545560;-73
2023/12/10 11:41:45;;;;;;;25.10;13.10;;;;;;;;;;103833;1292;545281;-73
2023/12/10 11:45:22;;;;;;;32.10;15.00;;;;;;;;;;103881;1290;544709;-73
2023/12/10 11:48:59;;;;;;;32.20;16.70;;;;;;;;;;103927;1288;545002;-73
2023/12/10 11:52:37;;;;;;;30.40;15.60;;;;;;;;;;103751;1289;545615;-72
2023/12/10 11:56:15;;;;;;;32.10;15.90;;;;;;;;;;103764;1291;546145;-72
2023/12/10 11:59:56;;;;;;;29.30;14.90;;;;;;;;;;103629;1291;546151;-73
2023/12/10 12:03:30;;;;;;;41.90;19.50;;;;;;;;;;103757;1289;545433;-72
2023/12/10 12:07:21;;;;;;;37.80;18.50;;;;;;;;;;103771;1295;545518;-74
2023/12/10 12:10:44;;;;;;;44.80;18.60;;;;;;;;;;103844;1289;544919;-73
2023/12/10 12:14:22;;;;;;;32.40;15.10;;;;;;;;;;104492;1288;544784;-73
2023/12/10 12:17:55;;;;;;;25.50;11.70;;;;;;;;;;103872;1289;545081;-73
2023/12/10 12:21:37;;;;;;;31.80;14.20;;;;;;;;;;103750;1292;545104;-73
2023/12/10 12:25:14;;;;;;;31.90;14.50;;;;;;;;;;103889;1289;545362;-73
2023/12/10 12:28:52;;;;;;;33.90;14.70;;;;;;;;;;103760;1291;545514;-73
2023/12/10 12:32:25;;;;;;;26.80;12.90;;;;;;;;;;103831;1293;544731;-72
2023/12/10 12:36:06;;;;;;;23.20;11.40;;;;;;;;;;103767;1290;545918;-72
2023/12/10 12:39:43;;;;;;;20.10;10.10;;;;;;;;;;103790;1292;545376;-73
2023/12/10 12:43:27;;;;;;;18.40;10.80;;;;;;;;;;103566;1295;547823;-73
2023/12/10 12:46:59;;;;;;;29.30;18.10;;;;;;;;;;103822;1288;545875;-72
2023/12/10 12:50:36;;;;;;;21.30;10.50;;;;;;;;;;103828;1291;545205;-72
2023/12/10 12:54:13;;;;;;;18.80;9.70;;;;;;;;;;103595;1295;544772;-74
2023/12/10 12:57:51;;;;;;;16.40;8.00;;;;;;;;;;103600;1298;544728;-73
2023/12/10 13:01:29;;;;;;;15.00;6.90;;;;;;;;;;103777;1295;544713;-73
2023/12/10 13:05:06;;;;;;;19.30;8.10;;;;;;;;;;104312;1283;545778;-72
2023/12/10 13:08:44;;;;;;;23.00;11.70;;;;;;;;;;103857;1291;544887;-73
2023/12/10 13:12:22;;;;;;;22.00;11.50;;;;;;;;;;103901;1292;545240;-72
2023/12/10 13:15:55;;;;;;;29.90;14.60;;;;;;;;;;103850;1289;544761;-73
2023/12/10 13:19:36;;;;;;;23.30;11.00;;;;;;;;;;103757;1288;545001;-74
2023/12/10 13:23:13;;;;;;;26.00;12.70;;;;;;;;;;104036;1289;545635;-71
2023/12/10 13:26:51;;;;;;;33.00;15.00;;;;;;;;;;104482;1283;544932;-72
2023/12/10 13:30:28;;;;;;;25.70;13.40;;;;;;;;;;103814;1293;545633;-76
2023/12/10 13:34:06;;;;;;;23.90;12.00;;;;;;;;;;103792;1290;544932;-73
2023/12/10 13:37:43;;;;;;;25.00;12.80;;;;;;;;;;103787;1289;544931;-73
2023/12/10 13:41:20;;;;;;;22.90;12.00;;;;;;;;;;103753;1289;544946;-72
2023/12/10 13:44:58;;;;;;;25.80;13.00;;;;;;;;;;103752;1290;545836;-74
2023/12/10 13:48:36;;;;;;;27.70;13.50;;;;;;;;;;103784;1289;544775;-73
2023/12/10 13:52:13;;;;;;;22.90;12.50;;;;;;;;;;103796;1288;544767;-73
2023/12/10 13:55:50;;;;;;;20.80;11.20;;;;;;;;;;103818;1292;545009;-73
2023/12/10 13:59:26;;;;;;;21.80;11.80;;;;;;;;;;103849;1292;545013;-74
2023/12/10 14:03:06;;;;;;;18.10;10.40;;;;;;;;;;103764;1293;544814;-74
2023/12/10 14:06:43;;;;;;;20.80;11.00;;;;;;;;;;103856;1289;545723;-72
2023/12/10 14:10:23;;;;;;;28.30;14.60;;;;;;;;;;103603;1294;544989;-72
2023/12/10 14:13:58;;;;;;;33.70;18.00;;;;;;;;;;103885;1289;545067;-73
2023/12/10 14:17:38;;;;;;;23.40;14.70;;;;;;;;;;103805;1292;544805;-72
2023/12/10 14:21:12;;;;;;;20.60;10.70;;;;;;;;;;103683;1291;544746;-72
2023/12/10 14:24:50;;;;;;;22.10;9.60;;;;;;;;;;103949;1289;544935;-72
2023/12/10 14:28:28;;;;;;;58.30;28.40;;;;;;;;;;103780;1292;544827;-72
2023/12/10 14:32:08;;;;;;;45.40;23.00;;;;;;;;;;104575;1282;545676;-72
2023/12/10 14:35:43;;;;;;;31.80;13.60;;;;;;;;;;103729;1293;545032;-72
2023/12/10 14:39:22;;;;;;;22.40;9.90;;;;;;;;;;103830;1289;545622;-72
2023/12/10 14:42:54;;;;;;;16.80;7.50;;;;;;;;;;103759;1295;545120;-72
2023/12/10 14:46:35;;;;;;;17.60;9.20;;;;;;;;;;103813;1289;545405;-72
2023/12/10 14:50:13;;;;;;;19.00;9.80;;;;;;;;;;103865;1291;544972;-70
2023/12/10 14:53:51;;;;;;;16.50;9.50;;;;;;;;;;103750;1294;545076;-72
2023/12/10 14:57:31;;;;;;;16.50;8.60;;;;;;;;;;103742;1289;544970;-71
2023/12/10 15:01:06;;;;;;;16.80;8.20;;;;;;;;;;103806;1292;544977;-73
2023/12/10 15:05:02;;;;;;;15.70;8.60;;;;;;;;;;106183;1292;548508;-73
2023/12/10 15:08:17;;;;;;;11.50;5.90;;;;;;;;;;104036;1289;545100;-72
2023/12/10 15:11:57;;;;;;;14.10;7.30;;;;;;;;;;103954;1291;544815;-71
2023/12/10 15:15:35;;;;;;;13.80;7.80;;;;;;;;;;103851;1289;545005;-72
2023/12/10 15:19:12;;;;;;;13.00;7.20;;;;;;;;;;103827;1292;545169;-71
2023/12/10 15:22:49;;;;;;;12.90;6.90;;;;;;;;;;103768;1291;544727;-71
2023/12/10 15:26:27;;;;;;;12.20;6.70;;;;;;;;;;103758;1296;545613;-73
2023/12/10 15:30:05;;;;;;;13.80;6.90;;;;;;;;;;103795;1289;545246;-73
2023/12/10 15:33:42;;;;;;;16.20;8.10;;;;;;;;;;103807;1289;544937;-72
2023/12/10 15:37:19;;;;;;;13.40;8.00;;;;;;;;;;103755;1289;544962;-74
2023/12/10 15:40:56;;;;;;;18.90;11.40;;;;;;;;;;103748;1289;544868;-72
2023/12/10 15:44:34;;;;;;;23.90;13.30;;;;;;;;;;104250;1286;545235;-71
2023/12/10 15:48:08;;;;;;;26.00;14.00;;;;;;;;;;103900;1292;544989;-71
2023/12/10 15:51:52;;;;;;;21.00;10.70;;;;;;;;;;103872;1291;545084;-72
2023/12/10 15:55:23;;;;;;;29.10;15.50;;;;;;;;;;103796;1292;544926;-72
2023/12/10 15:59:04;;;;;;;29.00;15.90;;;;;;;;;;103785;1290;544842;-73
2023/12/10 16:02:42;;;;;;;26.80;15.40;;;;;;;;;;103821;1292;545061;-72
2023/12/10 16:06:19;;;;;;;18.10;10.00;;;;;;;;;;104208;1286;544984;-71
2023/12/10 16:09:57;;;;;;;18.00;9.00;;;;;;;;;;103845;1290;544775;-71
2023/12/10 16:13:34;;;;;;;18.30;9.60;;;;;;;;;;104067;1294;545518;-72
2023/12/10 16:17:11;;;;;;;17.10;9.20;;;;;;;;;;103863;1292;545548;-71
2023/12/10 16:20:45;;;;;;;19.30;10.20;;;;;;;;;;103784;1295;545990;-71
2023/12/10 16:24:22;;;;;;;19.80;11.20;;;;;;;;;;104013;1289;545673;-71
2023/12/10 16:28:04;;;;;;;21.80;10.90;;;;;;;;;;104404;1286;544901;-72
2023/12/10 16:31:41;;;;;;;25.30;12.60;;;;;;;;;;103767;1289;545610;-71
2023/12/10 16:35:18;;;;;;;27.50;15.10;;;;;;;;;;103723;1290;545082;-71
2023/12/10 16:38:57;;;;;;;26.60;15.10;;;;;;;;;;103490;1295;545462;-71
2023/12/10 16:42:34;;;;;;;28.30;15.30;;;;;;;;;;103809;1292;546175;-72
2023/12/10 16:46:11;;;;;;;20.10;9.10;;;;;;;;;;104067;1288;544824;-72
2023/12/10 16:49:49;;;;;;;17.10;8.00;;;;;;;;;;103859;1289;544954;-73
2023/12/10 16:53:27;;;;;;;11.60;5.30;;;;;;;;;;103804;1289;546123;-71
2023/12/10 16:57:04;;;;;;;11.90;5.80;;;;;;;;;;103799;1292;545268;-71
2023/12/10 17:00:41;;;;;;;12.60;6.60;;;;;;;;;;103860;1291;545134;-70
2023/12/10 17:04:19;;;;;;;11.20;5.30;;;;;;;;;;103664;1292;546007;-71
2023/12/10 17:07:56;;;;;;;13.20;6.40;;;;;;;;;;103764;1292;545324;-71
2023/12/10 17:11:33;;;;;;;13.30;6.80;;;;;;;;;;103913;1292;544779;-71
2023/12/10 17:15:07;;;;;;;16.50;9.10;;;;;;;;;;104275;1283;544996;-71
2023/12/10 17:18:48;;;;;;;17.50;10.00;;;;;;;;;;103753;1291;545142;-70
2023/12/10 17:22:26;;;;;;;16.10;9.20;;;;;;;;;;103848;1295;545091;-69
2023/12/10 17:26:03;;;;;;;16.60;9.10;;;;;;;;;;104200;1285;544850;-70
2023/12/10 17:29:41;;;;;;;16.60;9.80;;;;;;;;;;103803;1291;544990;-70
2023/12/10 17:33:18;;;;;;;17.00;10.30;;;;;;;;;;103977;1290;545164;-71
2023/12/10 17:36:55;;;;;;;17.50;9.80;;;;;;;;;;103813;1291;545356;-70
2023/12/10 17:40:33;;;;;;;24.80;13.30;;;;;;;;;;104004;1288;545813;-71
2023/12/10 17:44:11;;;;;;;29.60;15.10;;;;;;;;;;103727;1290;544975;-70
2023/12/10 17:47:48;;;;;;;37.50;19.80;;;;;;;;;;103954;1289;545895;-71
2023/12/10 17:51:26;;;;;;;36.90;18.60;;;;;;;;;;103768;1295;544887;-71
2023/12/10 17:55:03;;;;;;;38.30;17.90;;;;;;;;;;104727;1280;544959;-71
2023/12/10 17:58:37;;;;;;;29.00;12.20;;;;;;;;;;104149;1292;545862;-71
2023/12/10 18:02:18;;;;;;;39.40;15.00;;;;;;;;;;103810;1304;545484;-71
2023/12/10 18:05:55;;;;;;;37.40;15.50;;;;;;;;;;103863;1296;545820;-70
2023/12/10 18:09:33;;;;;;;28.20;12.90;;;;;;;;;;103600;1295;546583;-71
2023/12/10 18:13:06;;;;;;;25.10;10.50;;;;;;;;;;103556;1296;545715;-71
2023/12/10 18:17:07;;;;;;;35.00;14.40;;;;;;;;;;103863;1292;547789;-72
2023/12/10 18:20:26;;;;;;;38.50;16.80;;;;;;;;;;103823;1291;545365;-70
2023/12/10 18:24:03;;;;;;;44.20;19.00;;;;;;;;;;103799;1289;545681;-72
2023/12/10 18:27:40;;;;;;;30.90;13.70;;;;;;;;;;103775;1290;545609;-70
2023/12/10 18:31:18;;;;;;;32.30;15.30;;;;;;;;;;103861;1292;545509;-72
2023/12/10 18:34:55;;;;;;;36.20;16.40;;;;;;;;;;103538;1294;545501;-72
2023/12/10 18:38:33;;;;;;;49.60;20.90;;;;;;;;;;103787;1292;546088;-72
2023/12/10 18:42:10;;;;;;;47.80;21.20;;;;;;;;;;103835;1288;544946;-70
2023/12/10 18:45:48;;;;;;;37.00;16.30;;;;;;;;;;104405;1283;544843;-71
2023/12/10 18:49:25;;;;;;;37.30;16.50;;;;;;;;;;104071;1291;545076;-72
2023/12/10 18:53:03;;;;;;;48.30;19.80;;;;;;;;;;103653;1295;545153;-73
2023/12/10 18:56:40;;;;;;;34.70;15.00;;;;;;;;;;103696;1292;545739;-70
2023/12/10 19:00:20;;;;;;;24.00;9.90;;;;;;;;;;104214;1285;545751;-71
2023/12/10 19:03:55;;;;;;;25.50;9.40;;;;;;;;;;103975;1289;545430;-72
2023/12/10 19:07:32;;;;;;;17.10;7.50;;;;;;;;;;103716;1292;545177;-71
2023/12/10 19:11:12;;;;;;;21.80;8.80;;;;;;;;;;103497;1298;545389;-70
2023/12/10 19:14:47;;;;;;;22.80;10.00;;;;;;;;;;103962;1289;545848;-72
2023/12/10 19:18:28;;;;;;;24.00;10.80;;;;;;;;;;103797;1289;544862;-71
2023/12/10 19:21:58;;;;;;;22.10;10.00;;;;;;;;;;103804;1302;545033;-71
2023/12/10 19:25:40;;;;;;;21.10;10.00;;;;;;;;;;103764;1292;545039;-71
2023/12/10 19:29:17;;;;;;;19.30;8.60;;;;;;;;;;103838;1295;544981;-71
2023/12/10 19:32:55;;;;;;;19.40;8.30;;;;;;;;;;103925;1288;545181;-71
2023/12/10 19:36:32;;;;;;;20.10;8.30;;;;;;;;;;103762;1289;545092;-70
2023/12/10 19:40:06;;;;;;;16.00;6.70;;;;;;;;;;103707;1291;545000;-71
2023/12/10 19:43:43;;;;;;;15.10;6.00;;;;;;;;;;103859;1292;545402;-71
2023/12/10 19:47:25;;;;;;;12.40;5.50;;;;;;;;;;104074;1288;544994;-71
2023/12/10 19:51:02;;;;;;;14.60;6.20;;;;;;;;;;103858;1292;544777;-74
2023/12/10 19:54:39;;;;;;;18.60;7.20;;;;;;;;;;103706;1292;544841;-72
2023/12/10 19:58:17;;;;;;;17.80;8.10;;;;;;;;;;103860;1288;545631;-71
2023/12/10 20:01:50;;;;;;;20.40;9.40;;;;;;;;;;103927;1301;544981;-71
2023/12/10 20:05:28;;;;;;;18.60;7.90;;;;;;;;;;104097;1289;545211;-73
2023/12/10 20:09:09;;;;;;;21.80;8.40;;;;;;;;;;103867;1290;545318;-73
2023/12/10 20:12:43;;;;;;;18.00;7.50;;;;;;;;;;103863;1289;545372;-74
2023/12/10 20:16:25;;;;;;;18.80;6.50;;;;;;;;;;104061;1289;544966;-74
2023/12/10 20:20:02;;;;;;;17.50;6.50;;;;;;;;;;103750;1291;546299;-71
2023/12/10 20:23:40;;;;;;;18.50;6.90;;;;;;;;;;104378;1283;545164;-70
2023/12/10 20:27:18;;;;;;;18.20;7.70;;;;;;;;;;103674;1292;545538;-71
2023/12/10 20:30:55;;;;;;;23.60;9.40;;;;;;;;;;103714;1290;545164;-72
2023/12/10 20:34:31;;;;;;;21.20;8.50;;;;;;;;;;103753;1291;545416;-72
2023/12/10 20:38:08;;;;;;;25.30;9.50;;;;;;;;;;103776;1297;545005;-75
2023/12/10 20:41:47;;;;;;;22.30;9.40;;;;;;;;;;103830;1292;545235;-70